createdAt,value
2018-12-31T00:02:09.467Z,78.00
2018-12-31T00:04:40.384Z,78.08
2018-12-31T00:07:11.302Z,78.09
2018-12-31T00:09:42.234Z,78.15
2018-12-31T00:12:13.208Z,78.23
2018-12-31T00:14:44.175Z,77.99
2018-12-31T00:17:15.090Z,78.06
2018-12-31T00:19:46.002Z,78.25
2018-12-31T00:22:16.954Z,78.44
2018-12-31T00:24:47.954Z,78.39
2018-12-31T00:27:18.873Z,78.78
2018-12-31T00:29:49.780Z,78.59
2018-12-31T00:32:20.704Z,78.66
2018-12-31T00:34:51.611Z,78.68
2018-12-31T00:37:22.549Z,78.66
2018-12-31T00:39:53.467Z,78.78
2018-12-31T00:42:24.428Z,78.99
2018-12-31T00:44:55.299Z,79.01
2018-12-31T00:47:26.262Z,78.79
2018-12-31T00:49:57.521Z,78.91
2018-12-31T00:52:28.424Z,78.72
2018-12-31T00:54:59.379Z,78.76
2018-12-31T00:57:30.300Z,79.11
2018-12-31T01:00:01.325Z,78.62
2018-12-31T01:02:33.105Z,78.80
2018-12-31T01:05:04.073Z,78.85
2018-12-31T01:07:34.975Z,78.96
2018-12-31T01:10:06.107Z,79.06
2018-12-31T01:12:37.064Z,79.15
2018-12-31T01:15:08.042Z,78.76
2018-12-31T01:17:39.013Z,78.87
2018-12-31T01:20:09.959Z,79.08
2018-12-31T01:22:40.893Z,78.96
2018-12-31T01:25:11.800Z,79.00
2018-12-31T01:27:42.745Z,79.02
2018-12-31T01:30:13.669Z,79.38
2018-12-31T01:32:44.648Z,79.40
2018-12-31T01:35:15.565Z,79.42
2018-12-31T01:37:46.505Z,79.64
2018-12-31T01:40:17.489Z,79.82
2018-12-31T01:42:48.443Z,79.82
2018-12-31T01:45:19.368Z,80.14
2018-12-31T01:47:50.283Z,80.24
2018-12-31T01:50:21.220Z,80.23
2018-12-31T01:52:52.141Z,80.26
2018-12-31T01:55:23.158Z,80.38
2018-12-31T01:57:54.057Z,80.39
2018-12-31T02:00:25.027Z,80.26
2018-12-31T02:02:55.943Z,80.35
2018-12-31T02:05:26.880Z,80.59
2018-12-31T02:07:57.809Z,80.63
2018-12-31T02:10:28.750Z,80.60
2018-12-31T02:12:59.696Z,80.71
2018-12-31T02:15:30.647Z,80.66
2018-12-31T02:18:01.571Z,80.70
2018-12-31T02:20:32.542Z,80.71
2018-12-31T02:23:03.473Z,80.67
2018-12-31T02:25:34.393Z,80.71
2018-12-31T02:28:05.659Z,80.63
2018-12-31T02:30:36.661Z,80.43
2018-12-31T02:33:07.602Z,80.27
2018-12-31T02:35:38.596Z,80.32
2018-12-31T02:38:09.532Z,80.50
2018-12-31T02:40:40.437Z,80.55
2018-12-31T02:43:11.590Z,80.52
2018-12-31T02:45:42.510Z,80.66
2018-12-31T02:48:13.745Z,81.00
2018-12-31T02:50:47.755Z,80.60
2018-12-31T02:53:21.094Z,80.71
2018-12-31T02:55:52.015Z,80.96
2018-12-31T02:58:22.958Z,80.93
2018-12-31T03:00:53.877Z,80.87
2018-12-31T03:03:24.788Z,81.00
2018-12-31T03:05:55.744Z,80.86
2018-12-31T03:08:29.766Z,81.11
2018-12-31T03:11:00.708Z,81.12
2018-12-31T03:13:36.455Z,81.18
2018-12-31T03:16:07.418Z,81.44
2018-12-31T03:18:38.407Z,81.91
2018-12-31T03:21:09.397Z,81.95
2018-12-31T03:23:40.394Z,81.87
2018-12-31T03:26:11.313Z,82.13
2018-12-31T03:28:42.346Z,82.44
2018-12-31T03:31:13.331Z,82.44
2018-12-31T03:33:44.222Z,82.68
2018-12-31T03:36:15.152Z,82.47
2018-12-31T03:38:46.108Z,82.42
2018-12-31T03:41:17.033Z,82.74
2018-12-31T03:43:47.981Z,82.83
2018-12-31T03:46:18.917Z,82.97
2018-12-31T03:48:49.842Z,83.02
2018-12-31T03:51:20.836Z,82.95
2018-12-31T03:53:51.755Z,82.90
2018-12-31T03:56:22.659Z,82.86
2018-12-31T03:58:53.569Z,82.97
2018-12-31T04:01:24.491Z,83.15
2018-12-31T04:03:55.406Z,83.41
2018-12-31T04:06:26.326Z,83.03
2018-12-31T04:08:57.238Z,83.17
2018-12-31T04:11:28.162Z,83.57
2018-12-31T04:13:59.071Z,83.76
2018-12-31T04:16:29.999Z,83.83
2018-12-31T04:19:02.003Z,83.91
2018-12-31T04:21:32.927Z,83.64
2018-12-31T04:24:03.864Z,83.72
2018-12-31T04:26:34.803Z,83.87
2018-12-31T04:29:05.759Z,83.98
2018-12-31T04:31:36.667Z,83.97
2018-12-31T04:34:07.591Z,84.16
2018-12-31T04:36:38.535Z,84.38
2018-12-31T04:39:09.471Z,84.35
2018-12-31T04:41:40.393Z,84.49
2018-12-31T04:44:11.307Z,84.12
2018-12-31T04:46:42.236Z,84.36
2018-12-31T04:49:13.220Z,84.40
2018-12-31T04:51:44.138Z,84.45
2018-12-31T04:54:15.081Z,84.34
2018-12-31T04:56:46.073Z,84.06
2018-12-31T04:59:17.021Z,83.99
2018-12-31T05:01:47.989Z,84.27
2018-12-31T05:04:18.948Z,84.25
2018-12-31T05:06:49.852Z,84.26
2018-12-31T05:09:20.794Z,84.09
2018-12-31T05:11:51.705Z,84.17
2018-12-31T05:14:22.632Z,84.09
2018-12-31T05:16:53.580Z,83.96
2018-12-31T05:19:24.508Z,83.87
2018-12-31T05:21:55.444Z,83.90
2018-12-31T05:24:26.449Z,83.55
2018-12-31T05:26:57.429Z,83.65
2018-12-31T05:29:28.367Z,83.83
2018-12-31T05:31:59.284Z,83.80
2018-12-31T05:34:30.208Z,83.77
2018-12-31T05:37:01.133Z,83.75
2018-12-31T05:39:32.062Z,83.75
2018-12-31T05:42:02.988Z,83.80
2018-12-31T05:44:33.925Z,83.62
2018-12-31T05:47:07.700Z,83.72
2018-12-31T05:49:38.693Z,83.75
2018-12-31T05:52:09.605Z,83.83
2018-12-31T05:54:40.661Z,83.81
2018-12-31T05:57:11.655Z,84.16
2018-12-31T05:59:42.550Z,84.36
2018-12-31T06:02:13.478Z,83.86
2018-12-31T06:04:44.423Z,83.86
2018-12-31T06:07:15.335Z,84.13
2018-12-31T06:09:46.252Z,84.29
2018-12-31T06:12:17.165Z,84.28
2018-12-31T06:14:49.149Z,84.28
2018-12-31T06:17:20.075Z,84.22
2018-12-31T06:19:51.006Z,84.28
2018-12-31T06:22:21.956Z,84.34
2018-12-31T06:24:52.879Z,84.22
2018-12-31T06:27:23.822Z,84.13
2018-12-31T06:29:54.749Z,84.29
2018-12-31T06:32:25.660Z,84.20
2018-12-31T06:34:56.868Z,84.50
2018-12-31T06:37:27.800Z,84.41
2018-12-31T06:39:58.698Z,84.20
2018-12-31T06:42:29.640Z,84.46
2018-12-31T06:45:00.611Z,84.07
2018-12-31T06:47:31.567Z,84.20
2018-12-31T06:50:02.486Z,84.15
2018-12-31T06:52:34.563Z,84.55
2018-12-31T06:55:05.659Z,84.38
2018-12-31T06:57:36.604Z,84.31
2018-12-31T07:00:07.604Z,84.15
2018-12-31T07:02:38.593Z,83.93
2018-12-31T07:05:09.556Z,84.03
2018-12-31T07:07:40.611Z,83.69
2018-12-31T07:10:11.600Z,83.59
2018-12-31T07:12:42.582Z,83.56
2018-12-31T07:15:13.496Z,83.66
2018-12-31T07:17:44.449Z,83.50
2018-12-31T07:20:15.400Z,83.76
2018-12-31T07:22:46.481Z,83.87
2018-12-31T07:25:17.416Z,83.47
2018-12-31T07:27:48.384Z,83.56
2018-12-31T07:30:19.396Z,83.70
2018-12-31T07:32:50.398Z,83.11
2018-12-31T07:35:21.306Z,83.35
2018-12-31T07:37:52.210Z,83.62
2018-12-31T07:40:23.188Z,83.65
2018-12-31T07:42:54.097Z,83.54
2018-12-31T07:45:25.018Z,83.33
2018-12-31T07:47:56.040Z,83.02
2018-12-31T07:50:28.163Z,83.02
2018-12-31T07:52:59.237Z,83.22
2018-12-31T07:55:30.226Z,83.14
2018-12-31T07:58:01.147Z,82.51
2018-12-31T08:00:32.126Z,82.01
2018-12-31T08:03:03.067Z,81.91
2018-12-31T08:05:34.067Z,81.50
2018-12-31T08:08:05.033Z,81.40
2018-12-31T08:10:36.086Z,81.48
2018-12-31T08:13:07.118Z,81.33
2018-12-31T08:15:38.272Z,80.86
2018-12-31T08:18:09.313Z,80.20
2018-12-31T08:20:40.276Z,79.68
2018-12-31T08:23:11.218Z,80.19
2018-12-31T08:25:42.170Z,80.26
2018-12-31T08:28:13.112Z,79.82
2018-12-31T08:30:44.149Z,80.03
2018-12-31T08:33:15.039Z,80.12
2018-12-31T08:35:45.986Z,79.11
2018-12-31T08:38:16.925Z,78.86
2018-12-31T08:40:47.907Z,79.27
2018-12-31T08:43:18.838Z,79.61
2018-12-31T08:45:49.807Z,79.95
2018-12-31T08:48:20.762Z,80.76
2018-12-31T08:50:51.737Z,80.82
2018-12-31T08:53:22.666Z,79.91
2018-12-31T08:55:53.711Z,79.85
2018-12-31T08:58:24.667Z,79.33
2018-12-31T09:00:55.602Z,78.73
2018-12-31T09:03:26.546Z,78.40
2018-12-31T09:05:57.524Z,77.67
2018-12-31T09:08:28.799Z,77.57
2018-12-31T09:10:59.743Z,77.65
2018-12-31T09:13:30.794Z,77.89
2018-12-31T09:16:01.788Z,78.22
2018-12-31T09:18:32.897Z,77.78
2018-12-31T09:21:03.766Z,77.50
2018-12-31T09:23:34.806Z,78.06
2018-12-31T09:26:05.875Z,78.51
2018-12-31T09:28:36.798Z,77.99
2018-12-31T09:31:07.919Z,78.21
2018-12-31T09:33:38.903Z,78.23
2018-12-31T09:36:09.832Z,78.37
2018-12-31T09:38:40.820Z,78.31
2018-12-31T09:41:11.837Z,78.48
2018-12-31T09:43:42.805Z,78.54
2018-12-31T09:46:13.773Z,78.33
2018-12-31T09:48:44.688Z,77.96
2018-12-31T09:51:15.637Z,77.05
2018-12-31T09:53:46.567Z,77.42
2018-12-31T09:56:17.525Z,78.10
2018-12-31T09:58:48.465Z,78.65
2018-12-31T10:01:19.435Z,77.71
2018-12-31T10:03:50.408Z,77.45
2018-12-31T10:06:21.363Z,78.01
2018-12-31T10:08:52.380Z,78.04
2018-12-31T10:11:23.367Z,77.68
2018-12-31T10:13:54.396Z,77.58
2018-12-31T10:16:25.345Z,77.04
2018-12-31T10:18:56.484Z,77.30
2018-12-31T10:21:27.418Z,77.34
2018-12-31T10:23:58.441Z,76.79
2018-12-31T10:26:29.378Z,77.47
2018-12-31T10:29:00.346Z,77.54
2018-12-31T10:31:31.309Z,77.12
2018-12-31T10:34:02.252Z,77.08
2018-12-31T10:36:33.211Z,76.93
2018-12-31T10:39:05.534Z,76.23
2018-12-31T10:41:36.585Z,76.71
2018-12-31T10:44:07.591Z,76.90
2018-12-31T10:46:38.554Z,76.87
2018-12-31T10:49:09.559Z,76.38
2018-12-31T10:51:40.618Z,76.21
2018-12-31T10:54:11.623Z,76.55
2018-12-31T10:56:42.562Z,76.55
2018-12-31T10:59:13.629Z,76.14
2018-12-31T11:01:44.551Z,75.94
2018-12-31T11:04:15.636Z,76.61
2018-12-31T11:06:46.801Z,76.06
2018-12-31T11:09:17.759Z,75.72
2018-12-31T11:11:48.734Z,76.13
2018-12-31T11:14:19.807Z,76.22
2018-12-31T11:16:50.809Z,76.66
2018-12-31T11:19:21.789Z,76.94
2018-12-31T11:21:52.723Z,76.42
2018-12-31T11:24:23.759Z,75.93
2018-12-31T11:26:54.735Z,75.64
2018-12-31T11:29:25.730Z,75.64
2018-12-31T11:31:56.626Z,75.85
2018-12-31T11:34:27.597Z,75.61
2018-12-31T11:36:58.556Z,75.42
2018-12-31T11:39:30.620Z,75.69
2018-12-31T11:42:01.640Z,76.09
2018-12-31T11:44:32.663Z,75.76
2018-12-31T11:47:03.762Z,75.59
2018-12-31T11:49:34.774Z,75.00
2018-12-31T11:52:05.705Z,75.44
2018-12-31T11:54:36.672Z,74.12
2018-12-31T11:57:07.612Z,74.23
2018-12-31T11:59:38.785Z,74.23
2018-12-31T12:02:09.720Z,74.06
2018-12-31T12:04:40.688Z,73.51
2018-12-31T12:07:11.685Z,73.01
2018-12-31T12:09:42.691Z,73.08
2018-12-31T12:12:13.709Z,73.91
2018-12-31T12:14:44.760Z,73.35
2018-12-31T12:17:15.758Z,73.04
2018-12-31T12:19:46.717Z,73.53
2018-12-31T12:22:17.666Z,73.93
2018-12-31T12:24:48.927Z,74.36
2018-12-31T12:27:19.891Z,73.97
2018-12-31T12:29:51.014Z,74.14
2018-12-31T12:32:22.036Z,73.99
2018-12-31T12:34:52.937Z,73.90
2018-12-31T12:37:23.897Z,73.50
2018-12-31T12:39:54.939Z,73.87
2018-12-31T12:42:26.105Z,73.72
2018-12-31T12:44:57.203Z,73.31
2018-12-31T12:47:28.577Z,73.60
2018-12-31T12:49:59.553Z,73.23
2018-12-31T12:52:30.523Z,72.59
2018-12-31T12:55:01.518Z,72.42
2018-12-31T12:57:35.917Z,73.00
2018-12-31T13:00:07.589Z,73.00
2018-12-31T13:02:38.692Z,72.12
2018-12-31T13:05:10.890Z,70.97
2018-12-31T13:07:42.232Z,71.45
2018-12-31T13:10:13.456Z,71.99
2018-12-31T13:12:44.536Z,72.18
2018-12-31T13:15:15.578Z,72.57
2018-12-31T13:17:46.947Z,72.57
2018-12-31T13:20:21.100Z,72.38
2018-12-31T13:22:52.128Z,72.42
2018-12-31T13:25:23.121Z,72.06
2018-12-31T13:27:54.190Z,72.20
2018-12-31T13:30:25.680Z,72.66
2018-12-31T13:33:00.020Z,72.77
2018-12-31T13:35:33.680Z,72.15
2018-12-31T13:38:04.698Z,72.03
2018-12-31T13:40:35.796Z,71.41
2018-12-31T13:43:06.934Z,70.75
2018-12-31T13:45:38.074Z,70.88
2018-12-31T13:48:36.157Z,70.83
2018-12-31T13:51:12.965Z,70.90
2018-12-31T13:53:44.035Z,71.01
2018-12-31T13:56:17.537Z,70.55
2018-12-31T13:58:48.022Z,70.57
2018-12-31T14:01:19.297Z,69.94
2018-12-31T14:03:50.294Z,68.01
2018-12-31T14:06:21.648Z,67.81
2018-12-31T14:08:52.703Z,68.75
2018-12-31T14:11:23.661Z,68.65
2018-12-31T14:13:54.934Z,68.42
2018-12-31T14:16:26.292Z,69.27
2018-12-31T14:18:58.569Z,69.19
2018-12-31T14:21:29.631Z,69.90
2018-12-31T14:24:00.560Z,69.92
2018-12-31T14:26:31.997Z,69.59
2018-12-31T14:29:26.761Z,69.46
2018-12-31T14:32:00.811Z,69.60
2018-12-31T14:34:32.264Z,69.57
2018-12-31T14:37:03.336Z,69.62
2018-12-31T14:39:34.475Z,69.57
2018-12-31T14:42:05.497Z,69.88
2018-12-31T14:44:36.516Z,69.68
2018-12-31T14:47:07.603Z,69.94
2018-12-31T14:49:46.861Z,70.07
2018-12-31T14:52:17.892Z,70.31
2018-12-31T14:54:49.168Z,70.58
2018-12-31T14:57:20.217Z,70.69
2018-12-31T14:59:51.488Z,71.12
2018-12-31T15:02:22.522Z,71.18
2018-12-31T15:05:01.206Z,71.60
2018-12-31T15:07:32.531Z,72.10
2018-12-31T15:10:03.633Z,73.10
2018-12-31T15:12:34.723Z,73.73
2018-12-31T15:15:06.032Z,73.84
2018-12-31T15:17:37.717Z,74.17
2018-12-31T15:20:11.145Z,73.91
2018-12-31T15:22:43.420Z,74.04
2018-12-31T15:25:14.441Z,74.60
2018-12-31T15:27:45.496Z,74.82
2018-12-31T15:30:16.513Z,75.46
2018-12-31T15:32:47.446Z,75.79
2018-12-31T15:35:18.460Z,75.45
2018-12-31T15:37:49.539Z,73.87
2018-12-31T15:40:20.566Z,72.49
2018-12-31T15:42:51.621Z,72.52
2018-12-31T15:45:22.634Z,72.71
2018-12-31T15:47:54.033Z,72.87
2018-12-31T15:50:24.985Z,73.02
2018-12-31T15:52:55.974Z,72.93
2018-12-31T15:55:26.927Z,73.29
2018-12-31T15:57:57.878Z,73.83
2018-12-31T16:00:31.792Z,74.33
2018-12-31T16:03:02.714Z,74.46
2018-12-31T16:05:33.636Z,74.63
2018-12-31T16:08:04.831Z,75.03
2018-12-31T16:10:35.804Z,74.89
2018-12-31T16:13:06.911Z,74.63
2018-12-31T16:15:38.663Z,74.62
2018-12-31T16:18:09.661Z,74.86
2018-12-31T16:20:40.915Z,75.15
2018-12-31T16:23:11.839Z,75.54
2018-12-31T16:25:42.776Z,74.80
2018-12-31T16:28:13.757Z,74.41
2018-12-31T16:30:45.006Z,74.62
2018-12-31T16:33:16.006Z,73.68
2018-12-31T16:35:47.007Z,73.76
2018-12-31T16:38:17.936Z,73.66
2018-12-31T16:40:48.943Z,73.54
2018-12-31T16:43:19.892Z,73.88
2018-12-31T16:45:50.996Z,74.04
2018-12-31T16:48:22.019Z,74.66
2018-12-31T16:50:52.954Z,75.06
2018-12-31T16:53:24.337Z,74.90
2018-12-31T16:55:55.257Z,75.08
2018-12-31T16:58:26.180Z,75.74
2018-12-31T17:00:57.211Z,75.44
2018-12-31T17:03:28.244Z,75.39
2018-12-31T17:05:59.192Z,75.63
2018-12-31T17:08:30.127Z,75.94
2018-12-31T17:11:01.070Z,76.22
2018-12-31T17:13:32.010Z,76.09
2018-12-31T17:16:02.944Z,75.74
2018-12-31T17:18:33.908Z,75.34
2018-12-31T17:21:04.984Z,75.66
2018-12-31T17:23:36.058Z,75.84
2018-12-31T17:26:07.193Z,75.76
2018-12-31T17:28:38.246Z,76.04
2018-12-31T17:31:09.196Z,75.60
2018-12-31T17:33:40.184Z,75.39
2018-12-31T17:36:16.613Z,75.56
2018-12-31T17:38:49.003Z,75.77
2018-12-31T17:41:20.182Z,75.35
2018-12-31T17:43:51.341Z,75.72
2018-12-31T17:46:22.343Z,75.76
2018-12-31T17:48:53.624Z,75.82
2018-12-31T17:51:24.564Z,75.77
2018-12-31T17:53:55.524Z,75.89
2018-12-31T17:56:26.549Z,75.62
2018-12-31T17:58:57.689Z,75.55
2018-12-31T18:01:28.645Z,75.32
2018-12-31T18:03:59.560Z,75.84
2018-12-31T18:06:30.521Z,76.14
2018-12-31T18:09:03.599Z,76.01
2018-12-31T18:11:35.245Z,76.39
2018-12-31T18:14:06.210Z,76.63
2018-12-31T18:16:37.177Z,76.69
2018-12-31T18:19:08.267Z,76.67
2018-12-31T18:21:39.638Z,76.67
2018-12-31T18:24:10.690Z,76.76
2018-12-31T18:26:41.631Z,76.83
2018-12-31T18:29:12.618Z,76.50
2018-12-31T18:31:43.677Z,76.58
2018-12-31T18:34:14.769Z,76.37
2018-12-31T18:36:45.720Z,75.63
2018-12-31T18:39:16.745Z,75.47
2018-12-31T18:41:47.750Z,75.55
2018-12-31T18:44:18.868Z,75.56
2018-12-31T18:46:50.212Z,75.53
2018-12-31T18:49:21.224Z,75.35
2018-12-31T18:51:52.182Z,75.22
2018-12-31T18:54:23.170Z,75.29
2018-12-31T18:56:54.153Z,75.34
2018-12-31T18:59:25.105Z,75.20
2018-12-31T19:01:56.132Z,75.51
2018-12-31T19:04:27.098Z,76.03
2018-12-31T19:06:58.380Z,75.87
2018-12-31T19:09:29.432Z,75.95
2018-12-31T19:12:00.436Z,75.51
2018-12-31T19:14:31.393Z,75.53
2018-12-31T19:17:02.456Z,75.54
2018-12-31T19:19:33.573Z,75.51
2018-12-31T19:22:04.643Z,75.80
2018-12-31T19:24:35.625Z,75.88
2018-12-31T19:27:06.679Z,75.76
2018-12-31T19:29:37.617Z,76.12
2018-12-31T19:32:08.657Z,75.90
2018-12-31T19:34:39.686Z,75.98
2018-12-31T19:37:10.773Z,76.33
2018-12-31T19:39:41.816Z,76.41
2018-12-31T19:42:12.756Z,76.57
2018-12-31T19:44:43.716Z,76.59
2018-12-31T19:47:14.687Z,76.46
2018-12-31T19:49:45.657Z,76.81
2018-12-31T19:52:16.584Z,76.43
2018-12-31T19:54:47.578Z,76.50
2018-12-31T19:57:18.528Z,76.74
2018-12-31T19:59:49.468Z,76.61
2018-12-31T20:02:20.668Z,77.00
2018-12-31T20:04:51.617Z,77.09
2018-12-31T20:07:22.550Z,77.09
2018-12-31T20:09:53.487Z,76.99
2018-12-31T20:12:25.495Z,77.18
2018-12-31T20:14:56.448Z,76.88
2018-12-31T20:17:27.397Z,77.04
2018-12-31T20:19:58.330Z,76.97
2018-12-31T20:22:29.296Z,77.39
2018-12-31T20:25:00.751Z,77.61
2018-12-31T20:27:31.643Z,77.63
2018-12-31T20:30:02.594Z,77.74
2018-12-31T20:32:33.618Z,77.48
2018-12-31T20:35:05.529Z,77.83
2018-12-31T20:37:36.644Z,77.99
2018-12-31T20:40:07.613Z,77.79
2018-12-31T20:42:38.697Z,77.86
2018-12-31T20:45:09.634Z,77.98
2018-12-31T20:47:40.597Z,78.13
2018-12-31T20:50:11.534Z,78.47
2018-12-31T20:52:42.538Z,78.66
2018-12-31T20:55:13.476Z,78.64
2018-12-31T20:57:44.387Z,78.54
2018-12-31T21:00:15.385Z,78.42
2018-12-31T21:02:46.373Z,78.20
2018-12-31T21:05:17.325Z,78.32
2018-12-31T21:07:48.399Z,78.29
2018-12-31T21:10:19.507Z,78.13
2018-12-31T21:12:50.719Z,78.22
2018-12-31T21:15:21.634Z,78.02
2018-12-31T21:17:52.671Z,77.93
2018-12-31T21:20:23.688Z,78.25
2018-12-31T21:22:54.725Z,77.88
2018-12-31T21:25:25.676Z,78.03
2018-12-31T21:27:56.719Z,78.09
2018-12-31T21:30:27.724Z,77.89
2018-12-31T21:32:58.777Z,78.13
2018-12-31T21:35:31.072Z,78.15
2018-12-31T21:38:02.167Z,77.93
2018-12-31T21:40:33.108Z,77.64
2018-12-31T21:43:04.123Z,77.76
2018-12-31T21:45:35.086Z,77.98
2018-12-31T21:48:06.065Z,78.40
2018-12-31T21:50:37.075Z,78.20
2018-12-31T21:53:08.067Z,78.14
2018-12-31T21:55:39.117Z,78.16
2018-12-31T21:58:10.349Z,78.25
2018-12-31T22:00:41.382Z,78.18
2018-12-31T22:03:12.324Z,78.26
2018-12-31T22:05:43.374Z,78.13
2018-12-31T22:08:14.443Z,78.06
2018-12-31T22:10:45.418Z,77.72
2018-12-31T22:13:16.373Z,77.73
2018-12-31T22:15:47.414Z,78.17
2018-12-31T22:18:18.467Z,78.29
2018-12-31T22:20:50.527Z,78.02
2018-12-31T22:23:21.634Z,78.31
2018-12-31T22:25:52.641Z,78.66
2018-12-31T22:28:23.735Z,78.73
2018-12-31T22:30:54.706Z,78.82
2018-12-31T22:33:25.718Z,78.75
2018-12-31T22:35:56.693Z,79.05
2018-12-31T22:38:27.835Z,79.32
2018-12-31T22:40:58.788Z,79.48
2018-12-31T22:43:30.081Z,79.65
2018-12-31T22:46:01.010Z,79.82
2018-12-31T22:48:32.008Z,79.76
2018-12-31T22:51:03.024Z,79.64
2018-12-31T22:53:34.038Z,79.81
2018-12-31T22:56:05.018Z,79.92
2018-12-31T22:58:35.974Z,79.92
2018-12-31T23:01:07.014Z,80.15
2018-12-31T23:03:38.225Z,80.42
2018-12-31T23:06:09.394Z,80.34
2018-12-31T23:08:40.337Z,80.20
2018-12-31T23:11:11.313Z,79.99
2018-12-31T23:13:42.955Z,80.07
2018-12-31T23:16:17.701Z,80.42
2018-12-31T23:18:48.634Z,80.32
2018-12-31T23:21:19.557Z,80.10
2018-12-31T23:23:50.522Z,80.31
2018-12-31T23:26:22.023Z,80.39
2018-12-31T23:28:53.038Z,80.68
2018-12-31T23:31:24.130Z,80.81
2018-12-31T23:33:55.459Z,80.75
2018-12-31T23:36:26.413Z,80.74
2018-12-31T23:39:05.061Z,80.91
2018-12-31T23:41:30.097Z,80.94
2018-12-31T23:44:01.047Z,81.01
2018-12-31T23:46:32.081Z,81.16
2018-12-31T23:49:03.309Z,81.27
2018-12-31T23:51:34.342Z,81.22
2018-12-31T23:54:05.342Z,81.30
2018-12-31T23:56:36.337Z,81.29
2018-12-31T23:59:07.273Z,81.41
